Terminal Aerodrome Forecast
Issued by NWS

Home | Current Version | Previous Version | Text Only | Print | Product List | Glossary On
Versions: 1 2 3 4 5 6 7 8 9 10 11 12
684
FTUS44 KLZK 132323
TAFADF
TAF
KADF 132323Z 1400/1424 10008KT P6SM SCT250
     FM140500 10007KT P6SM SCT020 BKN060
      TEMPO 1410/1414 BKN025
     FM141400 13006KT P6SM VCSH SCT012 OVC025
     FM141800 16007KT P6SM VCSH BKN020 PROB30 1420/1424 4SM -RA BR
      SCT006 OVC015=

USA.gov is the U.S. government's official web portal to all federal, state and local government web resources and services.